sensor_id;sensor_type;location;lat;lon;timestamp;pressure;altitude;pressure_sealevel;temperature;humidity
64521;BME280;50896;46.714;17.322;2023-09-07T00:00:50;101064.56;;;18.25;100.00
64521;BME280;50896;46.714;17.322;2023-09-07T00:03:17;101061.47;;;18.28;100.00
64521;BME280;50896;46.714;17.322;2023-09-07T00:05:45;101066.06;;;18.35;100.00
64521;BME280;50896;46.714;17.322;2023-09-07T00:08:11;101066.75;;;18.43;100.00
64521;BME280;50896;46.714;17.322;2023-09-07T00:10:38;101054.75;;;18.53;100.00
64521;BME280;50896;46.714;17.322;2023-09-07T00:13:05;101058.34;;;18.67;100.00
64521;BME280;50896;46.714;17.322;2023-09-07T00:15:37;101058.84;;;18.77;100.00
64521;BME280;50896;46.714;17.322;2023-09-07T00:18:04;101055.38;;;18.90;100.00
64521;BME280;50896;46.714;17.322;2023-09-07T00:20:31;101063.31;;;19.05;100.00
64521;BME280;50896;46.714;17.322;2023-09-07T00:23:01;101055.44;;;19.10;100.00
64521;BME280;50896;46.714;17.322;2023-09-07T00:25:27;101065.81;;;19.20;100.00
64521;BME280;50896;46.714;17.322;2023-09-07T00:27:54;101063.78;;;19.28;100.00
64521;BME280;50896;46.714;17.322;2023-09-07T00:30:21;101061.28;;;19.27;100.00
64521;BME280;50896;46.714;17.322;2023-09-07T00:32:48;101057.38;;;19.36;100.00
64521;BME280;50896;46.714;17.322;2023-09-07T00:35:15;101060.06;;;19.43;100.00
64521;BME280;50896;46.714;17.322;2023-09-07T00:37:42;101054.69;;;19.43;100.00
64521;BME280;50896;46.714;17.322;2023-09-07T00:40:09;101055.09;;;19.46;100.00
64521;BME280;50896;46.714;17.322;2023-09-07T00:42:36;101054.28;;;19.46;100.00
64521;BME280;50896;46.714;17.322;2023-09-07T00:45:04;101053.88;;;19.42;100.00
64521;BME280;50896;46.714;17.322;2023-09-07T00:47:33;101055.72;;;19.42;100.00
64521;BME280;50896;46.714;17.322;2023-09-07T00:50:01;101054.69;;;19.43;100.00
64521;BME280;50896;46.714;17.322;2023-09-07T00:52:29;101051.16;;;19.42;100.00
64521;BME280;50896;46.714;17.322;2023-09-07T00:54:56;101048.06;;;19.45;100.00
64521;BME280;50896;46.714;17.322;2023-09-07T00:57:23;101045.56;;;19.44;100.00
64521;BME280;50896;46.714;17.322;2023-09-07T00:59:52;101050.75;;;19.45;100.00
64521;BME280;50896;46.714;17.322;2023-09-07T01:02:19;101037.28;;;19.45;100.00
64521;BME280;50896;46.714;17.322;2023-09-07T01:04:46;101044.50;;;19.45;100.00
64521;BME280;50896;46.714;17.322;2023-09-07T01:07:17;101054.69;;;19.50;100.00
64521;BME280;50896;46.714;17.322;2023-09-07T01:09:47;101050.34;;;19.55;100.00
64521;BME280;50896;46.714;17.322;2023-09-07T01:12:16;101048.47;;;19.56;100.00
64521;BME280;50896;46.714;17.322;2023-09-07T01:14:43;101060.50;;;19.60;100.00
64521;BME280;50896;46.714;17.322;2023-09-07T01:17:10;101059.69;;;19.66;100.00
64521;BME280;50896;46.714;17.322;2023-09-07T01:19:39;101055.53;;;19.77;100.00
64521;BME280;50896;46.714;17.322;2023-09-07T01:22:10;101058.00;;;19.78;100.00
64521;BME280;50896;46.714;17.322;2023-09-07T01:24:38;101063.22;;;19.87;100.00
64521;BME280;50896;46.714;17.322;2023-09-07T01:27:05;101060.97;;;19.90;100.00
64521;BME280;50896;46.714;17.322;2023-09-07T01:29:33;101062.81;;;19.90;100.00
64521;BME280;50896;46.714;17.322;2023-09-07T01:32:00;101057.22;;;19.91;100.00
64521;BME280;50896;46.714;17.322;2023-09-07T01:34:28;101050.97;;;19.84;100.00
64521;BME280;50896;46.714;17.322;2023-09-07T01:36:55;101047.69;;;19.89;100.00
64521;BME280;50896;46.714;17.322;2023-09-07T01:39:22;101052.03;;;19.90;100.00
64521;BME280;50896;46.714;17.322;2023-09-07T01:41:49;101046.03;;;19.94;100.00
64521;BME280;50896;46.714;17.322;2023-09-07T01:44:16;101051.19;;;20.03;100.00
64521;BME280;50896;46.714;17.322;2023-09-07T01:46:43;101047.25;;;19.98;100.00
64521;BME280;50896;46.714;17.322;2023-09-07T01:49:10;101050.13;;;20.10;100.00
64521;BME280;50896;46.714;17.322;2023-09-07T01:51:37;101053.03;;;20.15;100.00
64521;BME280;50896;46.714;17.322;2023-09-07T01:54:04;101048.69;;;20.14;100.00
64521;BME280;50896;46.714;17.322;2023-09-07T01:56:32;101048.50;;;20.09;100.00
64521;BME280;50896;46.714;17.322;2023-09-07T01:58:59;101054.28;;;20.13;100.00
64521;BME280;50896;46.714;17.322;2023-09-07T02:01:28;101052.66;;;20.05;100.00
64521;BME280;50896;46.714;17.322;2023-09-07T02:03:57;101049.09;;;20.11;100.00
64521;BME280;50896;46.714;17.322;2023-09-07T02:06:24;101049.53;;;20.15;100.00
64521;BME280;50896;46.714;17.322;2023-09-07T02:08:51;101052.19;;;20.28;98.95
64521;BME280;50896;46.714;17.322;2023-09-07T02:11:18;101043.88;;;20.23;99.54
64521;BME280;50896;46.714;17.322;2023-09-07T02:13:47;101046.19;;;20.20;97.53
64521;BME280;50896;46.714;17.322;2023-09-07T02:16:14;101052.63;;;20.19;99.26
64521;BME280;50896;46.714;17.322;2023-09-07T02:18:42;101043.91;;;20.17;100.00
64521;BME280;50896;46.714;17.322;2023-09-07T02:21:15;101053.88;;;20.16;99.23
64521;BME280;50896;46.714;17.322;2023-09-07T02:23:42;101045.75;;;20.16;100.00
64521;BME280;50896;46.714;17.322;2023-09-07T02:26:09;101045.59;;;20.11;97.20
64521;BME280;50896;46.714;17.322;2023-09-07T02:28:36;101050.56;;;20.07;98.16
64521;BME280;50896;46.714;17.322;2023-09-07T02:31:05;101055.09;;;20.13;100.00
64521;BME280;50896;46.714;17.322;2023-09-07T02:33:32;101052.22;;;20.08;100.00
64521;BME280;50896;46.714;17.322;2023-09-07T02:36:00;101050.56;;;20.07;100.00
64521;BME280;50896;46.714;17.322;2023-09-07T02:38:27;101055.97;;;20.07;100.00
64521;BME280;50896;46.714;17.322;2023-09-07T02:40:55;101052.22;;;20.08;100.00
64521;BME280;50896;46.714;17.322;2023-09-07T02:43:23;101049.97;;;20.05;100.00
64521;BME280;50896;46.714;17.322;2023-09-07T02:45:50;101056.16;;;20.06;100.00
64521;BME280;50896;46.714;17.322;2023-09-07T02:48:20;101050.13;;;20.04;100.00
64521;BME280;50896;46.714;17.322;2023-09-07T02:50:48;101053.47;;;20.06;100.00
64521;BME280;50896;46.714;17.322;2023-09-07T02:53:20;101059.47;;;20.08;100.00
64521;BME280;50896;46.714;17.322;2023-09-07T02:55:47;101045.59;;;20.04;100.00
64521;BME280;50896;46.714;17.322;2023-09-07T02:58:14;101051.00;;;20.04;100.00
64521;BME280;50896;46.714;17.322;2023-09-07T03:00:42;101044.34;;;20.00;100.00
64521;BME280;50896;46.714;17.322;2023-09-07T03:03:13;101049.75;;;20.07;99.32
64521;BME280;50896;46.714;17.322;2023-09-07T03:05:42;101055.34;;;20.05;97.83
64521;BME280;50896;46.714;17.322;2023-09-07T03:08:09;101059.69;;;20.06;99.66
64521;BME280;50896;46.714;17.322;2023-09-07T03:10:37;101063.84;;;20.09;100.00
64521;BME280;50896;46.714;17.322;2023-09-07T03:13:07;101066.53;;;20.09;100.00
64521;BME280;50896;46.714;17.322;2023-09-07T03:15:34;101063.84;;;20.09;100.00
64521;BME280;50896;46.714;17.322;2023-09-07T03:18:04;101070.91;;;20.03;99.25
64521;BME280;50896;46.714;17.322;2023-09-07T03:20:33;101076.72;;;20.07;95.85
64521;BME280;50896;46.714;17.322;2023-09-07T03:23:02;101076.53;;;20.08;93.48
64521;BME280;50896;46.714;17.322;2023-09-07T03:25:29;101068.63;;;20.00;91.00
64521;BME280;50896;46.714;17.322;2023-09-07T03:27:56;101063.44;;;19.98;93.53
64521;BME280;50896;46.714;17.322;2023-09-07T03:30:23;101070.69;;;19.98;89.58
64521;BME280;50896;46.714;17.322;2023-09-07T03:32:51;101062.38;;;20.06;89.92
64521;BME280;50896;46.714;17.322;2023-09-07T03:35:19;101062.38;;;20.13;89.66
64521;BME280;50896;46.714;17.322;2023-09-07T03:37:46;101057.41;;;20.03;86.55
64521;BME280;50896;46.714;17.322;2023-09-07T03:40:13;101063.63;;;20.04;87.02
64521;BME280;50896;46.714;17.322;2023-09-07T03:42:41;101071.72;;;20.04;86.61
64521;BME280;50896;46.714;17.322;2023-09-07T03:45:10;101069.88;;;20.04;85.15
64521;BME280;50896;46.714;17.322;2023-09-07T03:47:37;101058.44;;;20.02;82.81
64521;BME280;50896;46.714;17.322;2023-09-07T03:50:05;101074.44;;;20.04;86.20
64521;BME280;50896;46.714;17.322;2023-09-07T03:52:33;101075.88;;;20.06;82.89
64521;BME280;50896;46.714;17.322;2023-09-07T03:55:02;101077.34;;;20.02;84.38
64521;BME280;50896;46.714;17.322;2023-09-07T03:57:29;101070.09;;;19.96;80.76
64521;BME280;50896;46.714;17.322;2023-09-07T03:59:57;101074.84;;;19.94;85.80
64521;BME280;50896;46.714;17.322;2023-09-07T04:02:24;101074.25;;;19.98;85.83
64521;BME280;50896;46.714;17.322;2023-09-07T04:04:53;101081.91;;;19.95;88.82
64521;BME280;50896;46.714;17.322;2023-09-07T04:07:21;101071.97;;;19.95;88.06
64521;BME280;50896;46.714;17.322;2023-09-07T04:09:49;101073.41;;;19.85;89.81
64521;BME280;50896;46.714;17.322;2023-09-07T04:12:17;101074.63;;;19.75;89.11
64521;BME280;50896;46.714;17.322;2023-09-07T04:14:44;101074.03;;;19.80;87.71
64521;BME280;50896;46.714;17.322;2023-09-07T04:17:11;101073.41;;;19.85;87.16
64521;BME280;50896;46.714;17.322;2023-09-07T04:19:39;101076.72;;;19.87;86.91
64521;BME280;50896;46.714;17.322;2023-09-07T04:22:06;101076.72;;;19.87;86.75
64521;BME280;50896;46.714;17.322;2023-09-07T04:24:33;101082.13;;;19.87;87.10
64521;BME280;50896;46.714;17.322;2023-09-07T04:27:01;101081.09;;;19.81;85.92
64521;BME280;50896;46.714;17.322;2023-09-07T04:29:30;101088.56;;;19.86;84.89
64521;BME280;50896;46.714;17.322;2023-09-07T04:31:57;101092.50;;;19.83;86.12
64521;BME280;50896;46.714;17.322;2023-09-07T04:34:24;101091.28;;;19.86;85.72
64521;BME280;50896;46.714;17.322;2023-09-07T04:36:52;101093.34;;;19.84;85.30
64521;BME280;50896;46.714;17.322;2023-09-07T04:39:19;101093.34;;;19.90;84.43
64521;BME280;50896;46.714;17.322;2023-09-07T04:41:46;101100.41;;;19.85;84.14
64521;BME280;50896;46.714;17.322;2023-09-07T04:44:14;101099.78;;;19.96;84.40
64521;BME280;50896;46.714;17.322;2023-09-07T04:46:41;101096.03;;;19.97;85.53
64521;BME280;50896;46.714;17.322;2023-09-07T04:49:09;101095.84;;;19.98;83.48
64521;BME280;50896;46.714;17.322;2023-09-07T04:51:36;101098.75;;;19.97;83.85
64521;BME280;50896;46.714;17.322;2023-09-07T04:54:03;101097.50;;;19.86;85.37
64521;BME280;50896;46.714;17.322;2023-09-07T04:56:30;101110.56;;;19.96;85.08
64521;BME280;50896;46.714;17.322;2023-09-07T04:58:57;101106.19;;;20.02;84.67
64521;BME280;50896;46.714;17.322;2023-09-07T05:01:25;101113.28;;;20.03;82.98
64521;BME280;50896;46.714;17.322;2023-09-07T05:03:53;101105.56;;;20.06;84.35
64521;BME280;50896;46.714;17.322;2023-09-07T05:06:22;101102.88;;;20.06;83.22
64521;BME280;50896;46.714;17.322;2023-09-07T05:08:50;101108.06;;;20.14;84.61
64521;BME280;50896;46.714;17.322;2023-09-07T05:11:17;101107.84;;;20.16;83.02
64521;BME280;50896;46.714;17.322;2023-09-07T05:13:44;101108.88;;;20.22;82.60
64521;BME280;50896;46.714;17.322;2023-09-07T05:16:11;101115.31;;;20.27;83.17
64521;BME280;50896;46.714;17.322;2023-09-07T05:18:41;101120.09;;;20.32;83.22
64521;BME280;50896;46.714;17.322;2023-09-07T05:21:15;101115.09;;;20.36;82.86
64521;BME280;50896;46.714;17.322;2023-09-07T05:23:42;101120.69;;;20.41;80.56
64521;BME280;50896;46.714;17.322;2023-09-07T05:26:09;101121.72;;;20.46;82.09
64521;BME280;50896;46.714;17.322;2023-09-07T05:28:36;101130.22;;;20.57;79.77
64521;BME280;50896;46.714;17.322;2023-09-07T05:31:03;101137.91;;;20.60;80.55
64521;BME280;50896;46.714;17.322;2023-09-07T05:33:32;101134.16;;;20.61;78.10
64521;BME280;50896;46.714;17.322;2023-09-07T05:35:59;101138.94;;;20.65;77.78
64521;BME280;50896;46.714;17.322;2023-09-07T05:38:28;101142.06;;;20.62;78.98
64521;BME280;50896;46.714;17.322;2023-09-07T05:40:59;101143.72;;;20.70;78.21
64521;BME280;50896;46.714;17.322;2023-09-07T05:43:26;101141.44;;;20.60;78.06
64521;BME280;50896;46.714;17.322;2023-09-07T05:45:53;101132.69;;;20.65;78.65
64521;BME280;50896;46.714;17.322;2023-09-07T05:48:20;101141.44;;;20.67;80.29
64521;BME280;50896;46.714;17.322;2023-09-07T05:50:48;101130.41;;;20.82;80.13
64521;BME280;50896;46.714;17.322;2023-09-07T05:53:14;101138.09;;;20.78;79.70
64521;BME280;50896;46.714;17.322;2023-09-07T05:55:41;101139.94;;;20.85;80.29
64521;BME280;50896;46.714;17.322;2023-09-07T05:58:08;101143.06;;;20.81;79.38
64521;BME280;50896;46.714;17.322;2023-09-07T06:00:42;101140.56;;;20.87;78.17
64521;BME280;50896;46.714;17.322;2023-09-07T06:03:10;101142.84;;;20.90;79.71
64521;BME280;50896;46.714;17.322;2023-09-07T06:05:38;101150.13;;;20.96;79.79
64521;BME280;50896;46.714;17.322;2023-09-07T06:08:07;101147.44;;;20.89;80.13
64521;BME280;50896;46.714;17.322;2023-09-07T06:10:35;101153.41;;;20.98;80.05
64521;BME280;50896;46.714;17.322;2023-09-07T06:13:03;101154.84;;;21.07;78.65
64521;BME280;50896;46.714;17.322;2023-09-07T06:15:31;101157.13;;;21.10;79.47
64521;BME280;50896;46.714;17.322;2023-09-07T06:17:58;101152.28;;;21.19;80.14
64521;BME280;50896;46.714;17.322;2023-09-07T06:20:25;101148.75;;;21.25;78.73
64521;BME280;50896;46.714;17.322;2023-09-07T06:22:54;101161.81;;;21.28;78.86
64521;BME280;50896;46.714;17.322;2023-09-07T06:25:21;101152.06;;;21.21;80.70
64521;BME280;50896;46.714;17.322;2023-09-07T06:27:49;101166.22;;;21.23;80.86
64521;BME280;50896;46.714;17.322;2023-09-07T06:30:16;101160.78;;;21.29;80.41
64521;BME280;50896;46.714;17.322;2023-09-07T06:32:43;101160.72;;;21.36;81.70
64521;BME280;50896;46.714;17.322;2023-09-07T06:35:11;101157.34;;;21.47;81.71
64521;BME280;50896;46.714;17.322;2023-09-07T06:37:38;101165.66;;;21.46;82.11
64521;BME280;50896;46.714;17.322;2023-09-07T06:40:09;101161.94;;;21.54;83.42
64521;BME280;50896;46.714;17.322;2023-09-07T06:42:37;101158.13;;;21.61;83.33
64521;BME280;50896;46.714;17.322;2023-09-07T06:45:10;101156.41;;;21.67;83.60
64521;BME280;50896;46.714;17.322;2023-09-07T06:47:38;101163.69;;;21.73;83.68
64521;BME280;50896;46.714;17.322;2023-09-07T06:50:07;101167.84;;;21.76;83.22
64521;BME280;50896;46.714;17.322;2023-09-07T06:52:33;101165.28;;;21.81;84.80
64521;BME280;50896;46.714;17.322;2023-09-07T06:55:00;101171.50;;;21.88;85.27
64521;BME280;50896;46.714;17.322;2023-09-07T06:57:28;101164.78;;;21.91;83.69
64521;BME280;50896;46.714;17.322;2023-09-07T06:59:56;101168.53;;;21.96;85.24
64521;BME280;50896;46.714;17.322;2023-09-07T07:02:23;101171.28;;;21.90;85.54
64521;BME280;50896;46.714;17.322;2023-09-07T07:04:50;101165.81;;;21.96;89.11
64521;BME280;50896;46.714;17.322;2023-09-07T07:07:18;101169.13;;;21.98;88.75
64521;BME280;50896;46.714;17.322;2023-09-07T07:09:45;101167.47;;;21.97;85.11
64521;BME280;50896;46.714;17.322;2023-09-07T07:12:12;101169.19;;;21.85;84.78
64521;BME280;50896;46.714;17.322;2023-09-07T07:14:39;101180.00;;;21.92;80.48
64521;BME280;50896;46.714;17.322;2023-09-07T07:17:06;101174.56;;;21.92;79.50
64521;BME280;50896;46.714;17.322;2023-09-07T07:19:34;101174.97;;;21.95;80.41
64521;BME280;50896;46.714;17.322;2023-09-07T07:22:02;101169.16;;;21.92;80.49
64521;BME280;50896;46.714;17.322;2023-09-07T07:24:31;101175.97;;;22.01;83.59
64521;BME280;50896;46.714;17.322;2023-09-07T07:26:58;101174.09;;;22.01;79.44
64521;BME280;50896;46.714;17.322;2023-09-07T07:29:26;101170.94;;;22.05;79.60
64521;BME280;50896;46.714;17.322;2023-09-07T07:31:55;101172.66;;;21.99;82.71
64521;BME280;50896;46.714;17.322;2023-09-07T07:34:22;101180.06;;;22.10;82.28
64521;BME280;50896;46.714;17.322;2023-09-07T07:36:49;101178.25;;;22.04;83.46
64521;BME280;50896;46.714;17.322;2023-09-07T07:39:16;101176.31;;;22.11;77.90
64521;BME280;50896;46.714;17.322;2023-09-07T07:41:43;101176.94;;;22.13;81.00
64521;BME280;50896;46.714;17.322;2023-09-07T07:44:12;101183.97;;;22.14;82.01
64521;BME280;50896;46.714;17.322;2023-09-07T07:46:39;101180.59;;;22.26;80.78
64521;BME280;50896;46.714;17.322;2023-09-07T07:49:06;101183.94;;;22.21;81.93
64521;BME280;50896;46.714;17.322;2023-09-07T07:51:33;101184.06;;;22.33;81.17
64521;BME280;50896;46.714;17.322;2023-09-07T07:54:00;101183.00;;;22.34;81.67
64521;BME280;50896;46.714;17.322;2023-09-07T07:56:27;101187.56;;;22.40;81.57
64521;BME280;50896;46.714;17.322;2023-09-07T07:58:58;101191.31;;;22.39;82.21
64521;BME280;50896;46.714;17.322;2023-09-07T08:01:25;101189.59;;;22.45;81.18
64521;BME280;50896;46.714;17.322;2023-09-07T08:03:54;101195.00;;;22.45;82.38
64521;BME280;50896;46.714;17.322;2023-09-07T08:06:22;101185.66;;;22.41;81.53
64521;BME280;50896;46.714;17.322;2023-09-07T08:08:49;101184.56;;;22.48;82.59
64521;BME280;50896;46.714;17.322;2023-09-07T08:11:16;101191.25;;;22.46;83.65
64521;BME280;50896;46.714;17.322;2023-09-07T08:13:48;101196.63;;;22.52;78.18
64521;BME280;50896;46.714;17.322;2023-09-07T08:16:16;101193.63;;;22.61;77.86
64521;BME280;50896;46.714;17.322;2023-09-07T08:18:44;101190.75;;;22.56;76.64
64521;BME280;50896;46.714;17.322;2023-09-07T08:21:14;101189.66;;;22.63;77.88
64521;BME280;50896;46.714;17.322;2023-09-07T08:23:41;101184.00;;;22.65;76.49
64521;BME280;50896;46.714;17.322;2023-09-07T08:26:08;101185.28;;;22.62;74.07
64521;BME280;50896;46.714;17.322;2023-09-07T08:28:38;101183.53;;;22.68;76.01
64521;BME280;50896;46.714;17.322;2023-09-07T08:31:04;101182.94;;;22.66;75.50
64521;BME280;50896;46.714;17.322;2023-09-07T08:33:32;101200.78;;;22.74;76.55
64521;BME280;50896;46.714;17.322;2023-09-07T08:36:07;101193.88;;;22.78;76.93
64521;BME280;50896;46.714;17.322;2023-09-07T08:38:35;101191.00;;;22.73;73.58
64521;BME280;50896;46.714;17.322;2023-09-07T08:41:02;101190.53;;;22.76;74.36
64521;BME280;50896;46.714;17.322;2023-09-07T08:43:33;101193.41;;;22.81;73.69
64521;BME280;50896;46.714;17.322;2023-09-07T08:46:20;101188.81;;;22.81;73.50
64521;BME280;50896;46.714;17.322;2023-09-07T08:48:52;101189.94;;;22.92;73.66
64521;BME280;50896;46.714;17.322;2023-09-07T08:51:23;101188.75;;;22.88;74.67
64521;BME280;50896;46.714;17.322;2023-09-07T08:53:50;101184.00;;;22.83;76.06
64521;BME280;50896;46.714;17.322;2023-09-07T08:56:18;101181.88;;;22.85;74.17
64521;BME280;50896;46.714;17.322;2023-09-07T08:58:47;101181.06;;;22.85;74.41
64521;BME280;50896;46.714;17.322;2023-09-07T09:01:18;101168.94;;;22.87;74.00
64521;BME280;50896;46.714;17.322;2023-09-07T09:03:45;101178.50;;;22.90;77.07
64521;BME280;50896;46.714;17.322;2023-09-07T09:06:14;101169.47;;;22.96;77.58
64521;BME280;50896;46.714;17.322;2023-09-07T09:11:09;101172.66;;;23.12;74.92
64521;BME280;50896;46.714;17.322;2023-09-07T09:13:39;101171.75;;;23.18;75.63
64521;BME280;50896;46.714;17.322;2023-09-07T09:16:06;101166.19;;;23.13;72.84
64521;BME280;50896;46.714;17.322;2023-09-07T09:18:33;101166.38;;;23.11;72.00
64521;BME280;50896;46.714;17.322;2023-09-07T09:21:01;101168.19;;;23.17;67.87
64521;BME280;50896;46.714;17.322;2023-09-07T09:23:37;101165.88;;;23.21;70.16
64521;BME280;50896;46.714;17.322;2023-09-07T09:26:04;101166.44;;;23.23;70.58
64521;BME280;50896;46.714;17.322;2023-09-07T09:28:35;101169.16;;;23.23;67.83
64521;BME280;50896;46.714;17.322;2023-09-07T09:31:02;101163.75;;;23.23;68.89
64521;BME280;50896;46.714;17.322;2023-09-07T09:33:31;101171.94;;;23.35;69.08
64521;BME280;50896;46.714;17.322;2023-09-07T09:35:58;101166.44;;;23.42;66.23
64521;BME280;50896;46.714;17.322;2023-09-07T09:38:25;101166.56;;;23.47;68.24
64521;BME280;50896;46.714;17.322;2023-09-07T09:40:52;101158.78;;;23.50;67.71
64521;BME280;50896;46.714;17.322;2023-09-07T09:43:20;101161.41;;;23.57;65.20
64521;BME280;50896;46.714;17.322;2023-09-07T09:45:48;101167.81;;;23.63;68.32
64521;BME280;50896;46.714;17.322;2023-09-07T09:48:21;101169.34;;;23.70;68.57
64521;BME280;50896;46.714;17.322;2023-09-07T09:50:49;101174.09;;;23.75;67.26
64521;BME280;50896;46.714;17.322;2023-09-07T09:53:17;101171.06;;;23.83;65.93
64521;BME280;50896;46.714;17.322;2023-09-07T09:55:50;101168.94;;;23.85;65.22
64521;BME280;50896;46.714;17.322;2023-09-07T09:58:19;101165.84;;;23.82;62.59
64521;BME280;50896;46.714;17.322;2023-09-07T10:00:52;101166.53;;;23.65;64.76
64521;BME280;50896;46.714;17.322;2023-09-07T10:03:26;101165.22;;;23.68;67.29
64521;BME280;50896;46.714;17.322;2023-09-07T10:05:54;101164.78;;;23.71;66.36
64521;BME280;50896;46.714;17.322;2023-09-07T10:08:21;101160.53;;;23.75;65.12
64521;BME280;50896;46.714;17.322;2023-09-07T10:10:54;101166.31;;;23.79;64.25
64521;BME280;50896;46.714;17.322;2023-09-07T10:13:31;101158.34;;;23.96;61.77
64521;BME280;50896;46.714;17.322;2023-09-07T10:16:06;101150.81;;;23.98;60.51
64521;BME280;50896;46.714;17.322;2023-09-07T10:18:38;101156.22;;;23.98;61.70
64521;BME280;50896;46.714;17.322;2023-09-07T10:21:05;101155.28;;;23.92;60.55
64521;BME280;50896;46.714;17.322;2023-09-07T10:23:43;101155.38;;;23.97;61.21
64521;BME280;50896;46.714;17.322;2023-09-07T10:26:15;101151.66;;;24.10;59.95
64521;BME280;50896;46.714;17.322;2023-09-07T10:28:45;101151.75;;;24.15;59.81
64521;BME280;50896;46.714;17.322;2023-09-07T10:31:17;101139.25;;;24.26;61.07
64521;BME280;50896;46.714;17.322;2023-09-07T10:33:45;101137.94;;;24.40;65.05
64521;BME280;50896;46.714;17.322;2023-09-07T10:36:26;101144.66;;;24.50;64.51
64521;BME280;50896;46.714;17.322;2023-09-07T10:38:55;101136.41;;;24.56;61.93
64521;BME280;50896;46.714;17.322;2023-09-07T10:41:22;101135.47;;;24.63;60.33
64521;BME280;50896;46.714;17.322;2023-09-07T10:43:51;101135.47;;;24.74;61.21
64521;BME280;50896;46.714;17.322;2023-09-07T10:46:19;101135.53;;;24.91;62.46
64521;BME280;50896;46.714;17.322;2023-09-07T10:48:51;101129.97;;;24.98;63.41
64521;BME280;50896;46.714;17.322;2023-09-07T10:51:19;101122.88;;;24.97;63.17
64521;BME280;50896;46.714;17.322;2023-09-07T10:53:46;101123.53;;;25.04;63.82
64521;BME280;50896;46.714;17.322;2023-09-07T10:56:13;101123.38;;;25.23;62.29
64521;BME280;50896;46.714;17.322;2023-09-07T10:58:40;101121.28;;;25.42;64.74
64521;BME280;50896;46.714;17.322;2023-09-07T11:01:09;101118.84;;;25.57;63.42
64521;BME280;50896;46.714;17.322;2023-09-07T11:03:36;101111.53;;;25.75;63.28
64521;BME280;50896;46.714;17.322;2023-09-07T11:06:10;101119.94;;;25.90;60.32
64521;BME280;50896;46.714;17.322;2023-09-07T11:08:38;101116.97;;;26.09;58.50
64521;BME280;50896;46.714;17.322;2023-09-07T11:11:05;101110.03;;;26.18;56.76
64521;BME280;50896;46.714;17.322;2023-09-07T11:13:33;101102.84;;;26.29;55.36
64521;BME280;50896;46.714;17.322;2023-09-07T11:16:00;101097.53;;;26.39;55.48
64521;BME280;50896;46.714;17.322;2023-09-07T11:18:27;101103.22;;;26.38;56.50
64521;BME280;50896;46.714;17.322;2023-09-07T11:20:54;101097.47;;;26.56;55.64
64521;BME280;50896;46.714;17.322;2023-09-07T11:23:22;101102.59;;;26.70;55.06
64521;BME280;50896;46.714;17.322;2023-09-07T11:25:50;101098.69;;;26.66;55.68
64521;BME280;50896;46.714;17.322;2023-09-07T11:28:19;101096.53;;;26.68;55.65
64521;BME280;50896;46.714;17.322;2023-09-07T11:30:53;101095.88;;;26.60;54.00
64521;BME280;50896;46.714;17.322;2023-09-07T11:33:22;101094.50;;;26.58;56.08
64521;BME280;50896;46.714;17.322;2023-09-07T11:35:50;101094.50;;;26.58;56.89
64521;BME280;50896;46.714;17.322;2023-09-07T11:38:17;101095.78;;;26.50;57.89
64521;BME280;50896;46.714;17.322;2023-09-07T11:40:44;101098.25;;;26.52;56.45
64521;BME280;50896;46.714;17.322;2023-09-07T11:43:12;101090.16;;;26.40;55.55
64521;BME280;50896;46.714;17.322;2023-09-07T11:45:40;101088.13;;;26.30;54.70
64521;BME280;50896;46.714;17.322;2023-09-07T11:48:09;101088.56;;;26.22;54.06
64521;BME280;50896;46.714;17.322;2023-09-07T11:50:37;101078.84;;;26.09;51.74
64521;BME280;50896;46.714;17.322;2023-09-07T11:53:05;101077.00;;;25.98;51.86
64521;BME280;50896;46.714;17.322;2023-09-07T11:55:33;101085.03;;;25.87;55.00
64521;BME280;50896;46.714;17.322;2023-09-07T11:58:02;101078.19;;;25.68;53.26
64521;BME280;50896;46.714;17.322;2023-09-07T12:00:29;101073.66;;;25.56;53.59
64521;BME280;50896;46.714;17.322;2023-09-07T12:02:58;101077.94;;;25.52;53.92
64521;BME280;50896;46.714;17.322;2023-09-07T12:05:26;101062.16;;;25.37;55.83
64521;BME280;50896;46.714;17.322;2023-09-07T12:07:53;101072.34;;;25.30;53.58
64521;BME280;50896;46.714;17.322;2023-09-07T12:10:20;101068.63;;;25.19;54.81
64521;BME280;50896;46.714;17.322;2023-09-07T12:12:47;101057.56;;;25.09;53.22
64521;BME280;50896;46.714;17.322;2023-09-07T12:15:14;101064.09;;;24.96;50.93
64521;BME280;50896;46.714;17.322;2023-09-07T12:17:40;101063.03;;;24.97;54.63
64521;BME280;50896;46.714;17.322;2023-09-07T12:20:08;101061.88;;;24.93;53.32
64521;BME280;50896;46.714;17.322;2023-09-07T12:22:37;101059.75;;;24.95;54.07
64521;BME280;50896;46.714;17.322;2023-09-07T12:25:07;101053.72;;;24.93;54.63
64521;BME280;50896;46.714;17.322;2023-09-07T12:27:42;101043.22;;;24.85;52.59
64521;BME280;50896;46.714;17.322;2023-09-07T12:30:18;101047.16;;;24.77;55.28
64521;BME280;50896;46.714;17.322;2023-09-07T12:32:48;101031.56;;;24.72;56.04
64521;BME280;50896;46.714;17.322;2023-09-07T12:35:15;101038.91;;;24.72;64.00
64521;BME280;50896;46.714;17.322;2023-09-07T12:37:43;101039.72;;;24.72;62.47
64521;BME280;50896;46.714;17.322;2023-09-07T12:40:10;101038.31;;;24.70;61.59
64521;BME280;50896;46.714;17.322;2023-09-07T12:42:41;101026.34;;;24.71;58.34
64521;BME280;50896;46.714;17.322;2023-09-07T12:45:09;101031.56;;;24.72;61.51